sensor_id;sensor_type;location;lat;lon;timestamp;P1;durP1;ratioP1;P2;durP2;ratioP2
39454;SDS011;25155;41.890;23.446;2023-02-19T00:01:22;15.37;;;9.00;;
39454;SDS011;25155;41.890;23.446;2023-02-19T00:03:51;14.73;;;10.00;;
39454;SDS011;25155;41.890;23.446;2023-02-19T00:06:22;13.48;;;7.43;;
39454;SDS011;25155;41.890;23.446;2023-02-19T00:08:50;11.50;;;6.88;;
39454;SDS011;25155;41.890;23.446;2023-02-19T00:11:18;10.90;;;7.13;;
39454;SDS011;25155;41.890;23.446;2023-02-19T00:13:49;13.57;;;8.32;;
39454;SDS011;25155;41.890;23.446;2023-02-19T00:16:19;13.52;;;7.68;;
39454;SDS011;25155;41.890;23.446;2023-02-19T00:18:47;11.73;;;7.45;;
39454;SDS011;25155;41.890;23.446;2023-02-19T00:21:15;11.05;;;6.60;;
39454;SDS011;25155;41.890;23.446;2023-02-19T00:23:48;9.60;;;6.15;;
39454;SDS011;25155;41.890;23.446;2023-02-19T00:26:16;10.80;;;6.72;;
39454;SDS011;25155;41.890;23.446;2023-02-19T00:28:43;10.55;;;6.38;;
39454;SDS011;25155;41.890;23.446;2023-02-19T00:31:14;7.60;;;5.38;;
39454;SDS011;25155;41.890;23.446;2023-02-19T00:33:44;8.68;;;5.72;;
39454;SDS011;25155;41.890;23.446;2023-02-19T00:36:12;8.43;;;5.63;;
39454;SDS011;25155;41.890;23.446;2023-02-19T00:38:40;11.73;;;7.40;;
39454;SDS011;25155;41.890;23.446;2023-02-19T00:41:10;8.70;;;5.70;;
39454;SDS011;25155;41.890;23.446;2023-02-19T00:43:46;10.25;;;5.90;;
39454;SDS011;25155;41.890;23.446;2023-02-19T00:46:15;9.00;;;6.03;;
39454;SDS011;25155;41.890;23.446;2023-02-19T00:48:44;7.97;;;5.30;;
39454;SDS011;25155;41.890;23.446;2023-02-19T00:51:11;10.98;;;6.75;;
39454;SDS011;25155;41.890;23.446;2023-02-19T00:53:38;9.52;;;5.68;;
39454;SDS011;25155;41.890;23.446;2023-02-19T00:56:06;8.05;;;4.80;;
39454;SDS011;25155;41.890;23.446;2023-02-19T00:58:35;7.30;;;4.80;;
39454;SDS011;25155;41.890;23.446;2023-02-19T01:01:03;8.05;;;5.25;;
39454;SDS011;25155;41.890;23.446;2023-02-19T01:03:31;7.70;;;5.13;;
39454;SDS011;25155;41.890;23.446;2023-02-19T01:05:59;7.10;;;4.40;;
39454;SDS011;25155;41.890;23.446;2023-02-19T01:08:26;7.70;;;4.75;;
39454;SDS011;25155;41.890;23.446;2023-02-19T01:10:56;8.80;;;5.85;;
39454;SDS011;25155;41.890;23.446;2023-02-19T01:13:24;10.57;;;6.45;;
39454;SDS011;25155;41.890;23.446;2023-02-19T01:15:55;10.30;;;7.28;;
39454;SDS011;25155;41.890;23.446;2023-02-19T01:18:29;9.88;;;6.45;;
39454;SDS011;25155;41.890;23.446;2023-02-19T01:20:56;9.35;;;5.93;;
39454;SDS011;25155;41.890;23.446;2023-02-19T01:23:24;8.50;;;6.13;;
39454;SDS011;25155;41.890;23.446;2023-02-19T01:25:51;11.93;;;7.38;;
39454;SDS011;25155;41.890;23.446;2023-02-19T01:28:18;12.35;;;8.43;;
39454;SDS011;25155;41.890;23.446;2023-02-19T01:30:47;10.23;;;6.95;;
39454;SDS011;25155;41.890;23.446;2023-02-19T01:33:16;11.13;;;7.10;;
39454;SDS011;25155;41.890;23.446;2023-02-19T01:35:43;11.43;;;7.18;;
39454;SDS011;25155;41.890;23.446;2023-02-19T01:38:10;11.70;;;7.32;;
39454;SDS011;25155;41.890;23.446;2023-02-19T01:40:38;11.48;;;6.90;;
39454;SDS011;25155;41.890;23.446;2023-02-19T01:43:08;10.60;;;5.70;;
39454;SDS011;25155;41.890;23.446;2023-02-19T01:45:42;9.45;;;6.38;;
39454;SDS011;25155;41.890;23.446;2023-02-19T01:48:11;9.63;;;6.15;;
39454;SDS011;25155;41.890;23.446;2023-02-19T01:50:44;7.93;;;5.20;;
39454;SDS011;25155;41.890;23.446;2023-02-19T01:53:18;7.03;;;4.75;;
39454;SDS011;25155;41.890;23.446;2023-02-19T01:55:51;9.93;;;5.85;;
39454;SDS011;25155;41.890;23.446;2023-02-19T01:58:22;10.98;;;6.22;;
39454;SDS011;25155;41.890;23.446;2023-02-19T02:00:51;8.43;;;5.45;;
39454;SDS011;25155;41.890;23.446;2023-02-19T02:03:18;8.20;;;5.28;;
39454;SDS011;25155;41.890;23.446;2023-02-19T02:05:49;11.00;;;6.15;;
39454;SDS011;25155;41.890;23.446;2023-02-19T02:08:22;11.13;;;5.80;;
39454;SDS011;25155;41.890;23.446;2023-02-19T02:11:08;10.20;;;6.15;;
39454;SDS011;25155;41.890;23.446;2023-02-19T02:13:35;11.90;;;6.68;;
39454;SDS011;25155;41.890;23.446;2023-02-19T02:16:07;8.00;;;5.40;;
39454;SDS011;25155;41.890;23.446;2023-02-19T02:18:52;9.70;;;5.90;;
39454;SDS011;25155;41.890;23.446;2023-02-19T02:24:40;8.57;;;5.13;;
39454;SDS011;25155;41.890;23.446;2023-02-19T02:27:34;8.82;;;5.82;;
39454;SDS011;25155;41.890;23.446;2023-02-19T02:33:00;11.07;;;6.28;;
39454;SDS011;25155;41.890;23.446;2023-02-19T02:35:37;10.85;;;6.55;;
39454;SDS011;25155;41.890;23.446;2023-02-19T02:38:08;9.15;;;5.65;;
39454;SDS011;25155;41.890;23.446;2023-02-19T02:40:38;10.68;;;6.50;;
